Wetterstation Vordersexau
Wetterdaten: Woche 09.03.15 - 15.03.15 (KW11)
Datum Zeit Temp. A. Feuchte A. Luftdruck Regen Wind Richtung Taupunkt Windchill Windben
09.03.2015 00:00 3,0 C 83 % 1021,9 hPa 0,0 l/m 0,0 km/h SO 0,4 C 3,0 C 0,0 km/h
09.03.2015 01:00 1,8 C 85 % 1022,1 hPa 0,0 l/m 0,0 km/h SO -0,4 C 1,8 C 0,0 km/h
09.03.2015 02:00 1,3 C 86 % 1022,0 hPa 0,0 l/m 0,0 km/h O-NO -0,8 C 1,3 C 0,0 km/h
09.03.2015 03:00 0,8 C 86 % 1022,2 hPa 0,0 l/m 0,0 km/h NO -1,3 C 0,8 C 0,0 km/h
09.03.2015 04:00 0,1 C 86 % 1023,0 hPa 0,0 l/m 0,0 km/h O-SO -2,0 C 0,1 C 0,0 km/h
09.03.2015 05:00 1,8 C 85 % 1023,8 hPa 0,0 l/m 0,0 km/h NO -0,4 C 1,8 C 0,0 km/h
09.03.2015 06:00 5,9 C 84 % 1023,8 hPa 0,0 l/m 0,0 km/h N-NO 3,4 C 5,9 C 0,0 km/h
09.03.2015 07:00 13,7 C 62 % 1023,7 hPa 0,0 l/m 0,0 km/h W-NW 6,6 C 13,7 C 0,0 km/h
09.03.2015 08:00 16,9 C 52 % 1023,5 hPa 0,0 l/m 1,3 km/h W-NW 7,0 C 16,9 C 0,7 km/h
09.03.2015 09:00 18,4 C 49 % 1022,9 hPa 0,0 l/m 0,0 km/h NW 7,5 C 18,4 C 0,0 km/h
09.03.2015 10:00 18,1 C 50 % 1022,2 hPa 0,0 l/m 0,0 km/h SW 7,5 C 18,1 C 0,0 km/h
09.03.2015 11:00 18,3 C 50 % 1021,6 hPa 0,0 l/m 0,0 km/h W-NW 7,7 C 18,3 C 0,0 km/h
09.03.2015 12:00 21,9 C 42 % 1021,3 hPa 0,0 l/m 0,0 km/h S-SW 8,4 C 21,9 C 0,0 km/h
09.03.2015 13:00 22,9 C 41 % 1020,9 hPa 0,0 l/m 0,0 km/h W 8,9 C 22,9 C 0,0 km/h
09.03.2015 14:00 17,6 C 50 % 1021,0 hPa 0,0 l/m 0,0 km/h W 7,1 C 17,6 C 0,0 km/h
09.03.2015 15:00 14,8 C 52 % 1021,4 hPa 0,0 l/m 0,0 km/h W 5,0 C 14,8 C 0,0 km/h
09.03.2015 16:00 8,3 C 69 % 1021,9 hPa 0,0 l/m 0,0 km/h S-SO 3,0 C 8,3 C 0,0 km/h
09.03.2015 17:00 6,7 C 76 % 1022,0 hPa 0,0 l/m 0,0 km/h O 2,8 C 6,7 C 0,0 km/h
09.03.2015 18:00 5,8 C 80 % 1022,1 hPa 0,0 l/m 0,0 km/h O 2,6 C 5,8 C 0,0 km/h
09.03.2015 19:00 4,1 C 81 % 1022,9 hPa 0,0 l/m 0,0 km/h NO 1,1 C 4,1 C 0,0 km/h
09.03.2015 20:00 3,9 C 84 % 1023,2 hPa 0,0 l/m 0,0 km/h SO 1,4 C 3,9 C 0,0 km/h
09.03.2015 21:00 4,4 C 84 % 1022,3 hPa 0,0 l/m 0,0 km/h N-NO 1,9 C 4,4 C 0,0 km/h
09.03.2015 22:00 3,6 C 84 % 1022,2 hPa 0,0 l/m 0,0 km/h O-SO 1,2 C 3,6 C 0,0 km/h
09.03.2015 23:00 1,4 C 85 % 1022,7 hPa 0,0 l/m 0,0 km/h O-SO -0,8 C 1,4 C 0,0 km/h
10.03.2015 00:00 0,9 C 85 % 1023,0 hPa 0,0 l/m 0,0 km/h O-SO -1,3 C 0,9 C 0,0 km/h
10.03.2015 01:00 1,0 C 86 % 1023,1 hPa 0,0 l/m 0,0 km/h O -1,1 C 1,0 C 0,0 km/h
10.03.2015 02:00 0,6 C 86 % 1023,6 hPa 0,0 l/m 0,0 km/h NO -1,5 C 0,6 C 0,0 km/h
10.03.2015 03:00 0,4 C 87 % 1023,9 hPa 0,0 l/m 0,0 km/h NO -1,5 C 0,4 C 0,0 km/h
10.03.2015 04:00 0,4 C 87 % 1023,6 hPa 0,0 l/m 0,0 km/h NO -1,5 C 0,4 C 0,0 km/h
10.03.2015 05:00 2,7 C 85 % 1024,3 hPa 0,0 l/m 0,0 km/h SO 0,4 C 2,7 C 0,0 km/h
10.03.2015 06:00 7,6 C 80 % 1024,9 hPa 0,0 l/m 0,0 km/h SW 4,4 C 7,6 C 0,0 km/h
10.03.2015 07:00 12,4 C 66 % 1025,0 hPa 0,0 l/m 0,0 km/h W-NW 6,2 C 12,4 C 0,0 km/h
10.03.2015 08:00 17,1 C 56 % 1025,0 hPa 0,0 l/m 0,0 km/h W-SW 8,3 C 17,1 C 0,0 km/h
10.03.2015 09:00 15,9 C 54 % 1024,5 hPa 0,0 l/m 0,0 km/h S-SW 6,6 C 15,9 C 0,0 km/h
10.03.2015 10:00 16,7 C 50 % 1023,8 hPa 0,0 l/m 0,0 km/h W 6,2 C 16,7 C 0,0 km/h
10.03.2015 11:00 17,1 C 51 % 1023,2 hPa 0,0 l/m 0,0 km/h S-SW 6,9 C 17,1 C 0,0 km/h
10.03.2015 12:00 19,1 C 48 % 1023,0 hPa 0,0 l/m 0,0 km/h N-NO 7,8 C 19,1 C 0,0 km/h
10.03.2015 13:00 18,9 C 44 % 1023,1 hPa 0,0 l/m 0,0 km/h N 6,4 C 18,9 C 0,0 km/h
10.03.2015 14:00 14,6 C 53 % 1023,1 hPa 0,0 l/m 0,0 km/h N-NO 5,1 C 14,6 C 0,0 km/h
10.03.2015 15:00 12,5 C 59 % 1023,5 hPa 0,0 l/m 0,0 km/h N-NO 4,7 C 12,5 C 0,0 km/h
10.03.2015 16:00 11,4 C 64 % 1024,4 hPa 0,0 l/m 0,6 km/h N 4,8 C 11,4 C 0,4 km/h
10.03.2015 17:00 10,5 C 67 % 1024,5 hPa 0,0 l/m 0,0 km/h N 4,6 C 10,5 C 0,0 km/h
10.03.2015 18:00 9,5 C 71 % 1024,6 hPa 0,0 l/m 0,0 km/h N 4,5 C 9,5 C 0,0 km/h
10.03.2015 19:00 8,7 C 75 % 1024,9 hPa 0,0 l/m 0,0 km/h O 4,5 C 8,7 C 0,0 km/h
10.03.2015 20:00 8,4 C 77 % 1025,1 hPa 0,0 l/m 0,0 km/h N 4,6 C 8,4 C 0,0 km/h
10.03.2015 21:00 7,9 C 80 % 1024,9 hPa 0,0 l/m 0,0 km/h N 4,7 C 7,9 C 0,0 km/h
10.03.2015 22:00 7,9 C 81 % 1024,8 hPa 0,0 l/m 0,0 km/h N 4,8 C 7,9 C 0,0 km/h
10.03.2015 23:00 7,6 C 82 % 1024,7 hPa 0,0 l/m 0,0 km/h N 4,7 C 7,6 C 0,0 km/h
11.03.2015 00:00 7,6 C 83 % 1024,3 hPa 0,0 l/m 0,0 km/h N 4,9 C 7,6 C 0,0 km/h
11.03.2015 01:00 7,1 C 84 % 1024,1 hPa 0,0 l/m 0,0 km/h NO 4,6 C 7,1 C 0,0 km/h
11.03.2015 02:00 6,1 C 85 % 1024,0 hPa 0,0 l/m 0,0 km/h NO 3,8 C 6,1 C 0,0 km/h
11.03.2015 03:00 6,4 C 85 % 1024,3 hPa 0,0 l/m 0,0 km/h NO 4,1 C 6,4 C 0,0 km/h
11.03.2015 04:00 6,1 C 86 % 1024,8 hPa 0,0 l/m 0,0 km/h NO 3,9 C 6,1 C 0,0 km/h
11.03.2015 05:00 6,8 C 86 % 1025,1 hPa 0,0 l/m 0,0 km/h W-NW 4,6 C 6,8 C 0,0 km/h
11.03.2015 06:00 7,5 C 85 % 1025,6 hPa 0,0 l/m 1,9 km/h W 5,1 C 7,5 C 1,1 km/h
11.03.2015 07:00 11,5 C 78 % 1025,7 hPa 0,0 l/m 7,8 km/h W 7,8 C 10,6 C 4,3 km/h
11.03.2015 08:00 14,2 C 69 % 1025,7 hPa 0,0 l/m 0,0 km/h W 8,6 C 14,2 C 0,0 km/h
11.03.2015 09:00 16,8 C 60 % 1025,2 hPa 0,0 l/m 1,9 km/h N 9,0 C 16,8 C 1,1 km/h
11.03.2015 10:00 17,2 C 53 % 1024,6 hPa 0,0 l/m 0,0 km/h NW 7,5 C 17,2 C 0,0 km/h
11.03.2015 11:00 16,3 C 49 % 1024,1 hPa 0,0 l/m 5,2 km/h NW 5,6 C 16,3 C 2,9 km/h
11.03.2015 12:00 17,7 C 46 % 1024,0 hPa 0,0 l/m 6,5 km/h N-NO 5,9 C 17,7 C 3,6 km/h
11.03.2015 13:00 17,9 C 40 % 1024,1 hPa 0,0 l/m 6,5 km/h N-NW 4,1 C 17,9 C 3,6 km/h
11.03.2015 14:00 15,4 C 40 % 1023,7 hPa 0,0 l/m 0,0 km/h N-NO 1,9 C 15,4 C 0,0 km/h
11.03.2015 15:00 13,1 C 43 % 1024,3 hPa 0,0 l/m 0,0 km/h N-NO 0,8 C 13,1 C 0,0 km/h
11.03.2015 16:00 6,8 C 54 % 1024,9 hPa 0,0 l/m 0,0 km/h N-NO -1,8 C 6,8 C 0,0 km/h
11.03.2015 17:00 4,2 C 64 % 1025,2 hPa 0,0 l/m 0,0 km/h N-NO -2,0 C 4,2 C 0,0 km/h
11.03.2015 18:00 3,3 C 67 % 1025,5 hPa 0,0 l/m 0,0 km/h N-NO -2,2 C 3,3 C 0,0 km/h
11.03.2015 19:00 1,8 C 71 % 1025,9 hPa 0,0 l/m 0,0 km/h N-NO -2,9 C 1,8 C 0,0 km/h
11.03.2015 20:00 0,8 C 71 % 1026,0 hPa 0,0 l/m 0,0 km/h N-NO -3,8 C 0,8 C 0,0 km/h
11.03.2015 21:00 0,3 C 73 % 1026,0 hPa 0,0 l/m 0,0 km/h N-NO -4,0 C 0,3 C 0,0 km/h
11.03.2015 22:00 -0,4 C 73 % 1026,3 hPa 0,0 l/m 0,0 km/h N-NO -4,6 C -0,4 C 0,0 km/h
11.03.2015 23:00 -1,4 C 77 % 1026,7 hPa 0,0 l/m 0,0 km/h N-NO -4,9 C -1,4 C 0,0 km/h
12.03.2015 00:00 -2,2 C 80 % 1026,3 hPa 0,0 l/m 0,0 km/h N-NO -5,2 C -2,2 C 0,0 km/h
12.03.2015 01:00 -1,6 C 80 % 1026,4 hPa 0,0 l/m 0,0 km/h NO -4,6 C -1,6 C 0,0 km/h
12.03.2015 02:00 -2,1 C 81 % 1026,2 hPa 0,0 l/m 0,0 km/h NO -4,9 C -2,1 C 0,0 km/h
12.03.2015 03:00 -2,1 C 81 % 1026,3 hPa 0,0 l/m 0,0 km/h NO -4,9 C -2,1 C 0,0 km/h
12.03.2015 04:00 -3,9 C 81 % 1026,6 hPa 0,0 l/m 0,0 km/h NO -6,7 C -3,9 C 0,0 km/h
12.03.2015 05:00 -0,1 C 86 % 1026,2 hPa 0,0 l/m 0,0 km/h W-NW -2,2 C -0,1 C 0,0 km/h
12.03.2015 06:00 5,1 C 68 % 1026,4 hPa 0,0 l/m 1,3 km/h NW -0,3 C 5,1 C 0,7 km/h
12.03.2015 07:00 10,6 C 57 % 1026,0 hPa 0,0 l/m 0,0 km/h W 2,4 C 10,6 C 0,0 km/h
12.03.2015 08:00 14,1 C 49 % 1025,7 hPa 0,0 l/m 7,8 km/h W-NW 3,6 C 13,3 C 4,3 km/h
12.03.2015 09:00 16,9 C 42 % 1024,9 hPa 0,0 l/m 3,2 km/h SO 3,9 C 16,9 C 1,8 km/h
12.03.2015 10:00 17,0 C 35 % 1024,1 hPa 0,0 l/m 0,0 km/h NO 1,4 C 17,0 C 0,0 km/h
12.03.2015 11:00 15,9 C 34 % 1023,4 hPa 0,0 l/m 2,6 km/h N-NO 0,1 C 15,9 C 1,4 km/h
12.03.2015 12:00 19,4 C 31 % 1022,5 hPa 0,0 l/m 0,0 km/h O-NO 1,8 C 19,4 C 0,0 km/h
12.03.2015 13:00 19,9 C 31 % 1022,1 hPa 0,0 l/m 0,0 km/h SO 2,3 C 19,9 C 0,0 km/h
12.03.2015 14:00 17,9 C 31 % 1021,9 hPa 0,0 l/m 0,0 km/h NO 0,5 C 17,9 C 0,0 km/h
12.03.2015 15:00 14,5 C 36 % 1021,9 hPa 0,0 l/m 0,0 km/h O-NO -0,4 C 14,5 C 0,0 km/h
12.03.2015 16:00 7,8 C 48 % 1022,2 hPa 0,0 l/m 0,0 km/h NO -2,5 C 7,8 C 0,0 km/h
12.03.2015 17:00 4,7 C 55 % 1022,5 hPa 0,0 l/m 0,0 km/h NO -3,6 C 4,7 C 0,0 km/h
12.03.2015 18:00 2,8 C 64 % 1022,4 hPa 0,0 l/m 0,0 km/h O-SO -3,3 C 2,8 C 0,0 km/h
12.03.2015 19:00 1,3 C 71 % 1022,2 hPa 0,0 l/m 0,0 km/h O -3,4 C 1,3 C 0,0 km/h
12.03.2015 20:00 0,9 C 72 % 1021,8 hPa 0,0 l/m 0,0 km/h NO -3,6 C 0,9 C 0,0 km/h
12.03.2015 21:00 -1,1 C 74 % 1020,9 hPa 0,0 l/m 0,0 km/h SO -5,1 C -1,1 C 0,0 km/h
12.03.2015 22:00 -2,1 C 78 % 1020,5 hPa 0,0 l/m 0,0 km/h SO -5,4 C -2,1 C 0,0 km/h
12.03.2015 23:00 -1,9 C 81 % 1020,1 hPa 0,0 l/m 0,0 km/h O-SO -4,7 C -1,9 C 0,0 km/h
13.03.2015 00:00 -2,2 C 82 % 1019,5 hPa 0,0 l/m 0,0 km/h O-SO -4,8 C -2,2 C 0,0 km/h
13.03.2015 01:00 -2,4 C 83 % 1019,3 hPa 0,0 l/m 0,0 km/h O-NO -4,9 C -2,4 C 0,0 km/h
13.03.2015 02:00 -2,3 C 84 % 1019,0 hPa 0,0 l/m 0,0 km/h NO -4,6 C -2,3 C 0,0 km/h
13.03.2015 03:00 -2,8 C 84 % 1019,4 hPa 0,0 l/m 0,0 km/h NO -5,1 C -2,8 C 0,0 km/h
13.03.2015 04:00 -3,3 C 85 % 1019,3 hPa 0,0 l/m 0,0 km/h NO -5,5 C -3,3 C 0,0 km/h
13.03.2015 05:00 -1,3 C 86 % 1019,4 hPa 0,0 l/m 0,0 km/h W-NW -3,3 C -1,3 C 0,0 km/h
13.03.2015 06:00 4,4 C 73 % 1019,3 hPa 0,0 l/m 0,0 km/h W -0,0 C 4,4 C 0,0 km/h
13.03.2015 07:00 9,0 C 62 % 1019,0 hPa 0,0 l/m 0,0 km/h W-NW 2,1 C 9,0 C 0,0 km/h
13.03.2015 08:00 4,4 C 73 % 1019,3 hPa 0,0 l/m 0,0 km/h W -0,0 C 4,4 C 0,0 km/h
13.03.2015 09:00 9,0 C 62 % 1019,0 hPa 0,0 l/m 0,0 km/h W 2,1 C 9,0 C 0,0 km/h
13.03.2015 10:00 12,8 C 53 % 1018,8 hPa 0,0 l/m 0,0 km/h S 3,5 C 12,8 C 0,0 km/h
13.03.2015 11:00 14,4 C 50 % 1018,1 hPa 0,0 l/m 0,0 km/h W-NW 4,1 C 14,4 C 0,0 km/h
13.03.2015 12:00 14,4 C 48 % 1017,3 hPa 0,0 l/m 0,0 km/h W 3,5 C 14,4 C 0,0 km/h
13.03.2015 13:00 14,7 C 46 % 1016,4 hPa 0,0 l/m 8,4 km/h NW 3,2 C 13,6 C 4,7 km/h
13.03.2015 14:00 16,6 C 42 % 1015,9 hPa 0,0 l/m 1,9 km/h W-NW 3,6 C 16,6 C 1,1 km/h
13.03.2015 15:00 18,0 C 39 % 1015,5 hPa 0,0 l/m 0,0 km/h N-NO 3,8 C 18,0 C 0,0 km/h
13.03.2015 16:00 18,9 C 35 % 1015,4 hPa 0,0 l/m 0,0 km/h N-NW 3,1 C 18,9 C 0,0 km/h
13.03.2015 17:00 12,3 C 45 % 1015,9 hPa 0,0 l/m 0,0 km/h O-SO 0,7 C 12,3 C 0,0 km/h
13.03.2015 18:00 6,3 C 59 % 1016,1 hPa 0,0 l/m 0,0 km/h SO -1,1 C 6,3 C 0,0 km/h
13.03.2015 19:00 4,3 C 68 % 1016,4 hPa 0,0 l/m 0,0 km/h O-SO -1,1 C 4,3 C 0,0 km/h
13.03.2015 20:00 2,6 C 72 % 1016,7 hPa 0,0 l/m 0,0 km/h O-SO -1,9 C 2,6 C 0,0 km/h
13.03.2015 21:00 1,7 C 74 % 1017,1 hPa 0,0 l/m 0,0 km/h O-SO -2,4 C 1,7 C 0,0 km/h
13.03.2015 22:00 3,6 C 74 % 1017,0 hPa 0,0 l/m 0,0 km/h O-SO -0,6 C 3,6 C 0,0 km/h
13.03.2015 23:00 4,6 C 70 % 1017,1 hPa 0,0 l/m 0,0 km/h O-SO -0,4 C 4,6 C 0,0 km/h
14.03.2015 00:00 4,1 C 68 % 1017,0 hPa 0,0 l/m 0,0 km/h O-SO -1,3 C 4,1 C 0,0 km/h
14.03.2015 01:00 1,5 C 73 % 1017,4 hPa 0,0 l/m 0,0 km/h W -2,8 C 1,5 C 0,0 km/h
14.03.2015 02:00 1,3 C 76 % 1017,6 hPa 0,0 l/m 0,0 km/h NW -2,5 C 1,3 C 0,0 km/h
14.03.2015 03:00 -1,0 C 78 % 1017,7 hPa 0,0 l/m 0,0 km/h NW -4,3 C -1,0 C 0,0 km/h
14.03.2015 04:00 -1,9 C 80 % 1018,3 hPa 0,0 l/m 0,0 km/h NW -4,9 C -1,9 C 0,0 km/h
14.03.2015 05:00 -2,2 C 82 % 1018,6 hPa 0,0 l/m 0,0 km/h NW -4,8 C -2,2 C 0,0 km/h
14.03.2015 06:00 -2,8 C 83 % 1018,8 hPa 0,0 l/m 0,0 km/h NW -5,3 C -2,8 C 0,0 km/h
14.03.2015 07:00 -0,6 C 85 % 1019,1 hPa 0,0 l/m 0,0 km/h NW -2,8 C -0,6 C 0,0 km/h
14.03.2015 08:00 4,4 C 74 % 1019,3 hPa 0,0 l/m 0,0 km/h W-NW 0,2 C 4,4 C 0,0 km/h
14.03.2015 09:00 8,5 C 64 % 1019,4 hPa 0,0 l/m 0,0 km/h S-SW 2,1 C 8,5 C 0,0 km/h
14.03.2015 10:00 12,9 C 55 % 1019,3 hPa 0,0 l/m 0,0 km/h S-SW 4,1 C 12,9 C 0,0 km/h
14.03.2015 11:00 15,3 C 47 % 1018,5 hPa 0,0 l/m 2,6 km/h N 4,1 C 15,3 C 1,4 km/h
14.03.2015 12:00 16,9 C 40 % 1018,2 hPa 0,0 l/m 6,5 km/h N-NO 3,2 C 16,9 C 3,6 km/h
14.03.2015 13:00 15,3 C 40 % 1017,7 hPa 0,0 l/m 0,0 km/h N-NO 1,8 C 15,3 C 0,0 km/h
14.03.2015 14:00 16,6 C 38 % 1017,9 hPa 0,0 l/m 0,0 km/h O 2,2 C 16,6 C 0,0 km/h
14.03.2015 15:00 18,4 C 35 % 1018,0 hPa 0,0 l/m 0,0 km/h N 2,7 C 18,4 C 0,0 km/h
14.03.2015 16:00 16,1 C 37 % 1018,2 hPa 0,0 l/m 0,0 km/h O-NO 1,4 C 16,1 C 0,0 km/h
14.03.2015 17:00 11,2 C 45 % 1018,6 hPa 0,0 l/m 0,0 km/h NO -0,3 C 11,2 C 0,0 km/h
14.03.2015 18:00 6,2 C 56 % 1019,3 hPa 0,0 l/m 0,0 km/h SO -1,9 C 6,2 C 0,0 km/h
14.03.2015 19:00 3,3 C 61 % 1019,8 hPa 0,0 l/m 0,0 km/h O-NO -3,5 C 3,3 C 0,0 km/h
14.03.2015 20:00 2,1 C 67 % 1019,7 hPa 0,0 l/m 0,0 km/h O-NO -3,4 C 2,1 C 0,0 km/h
14.03.2015 21:00 2,3 C 71 % 1019,7 hPa 0,0 l/m 0,0 km/h O -2,4 C 2,3 C 0,0 km/h
14.03.2015 22:00 2,1 C 73 % 1019,4 hPa 0,0 l/m 0,0 km/h O-NO -2,2 C 2,1 C 0,0 km/h
14.03.2015 23:00 0,6 C 75 % 1019,4 hPa 0,0 l/m 0,0 km/h O-NO -3,3 C 0,6 C 0,0 km/h
15.03.2015 00:00 0,1 C 78 % 1019,9 hPa 0,0 l/m 0,0 km/h O-NO -3,3 C 0,1 C 0,0 km/h
15.03.2015 01:00 -0,9 C 79 % 1019,6 hPa 0,0 l/m 0,0 km/h O-NO -4,1 C -0,9 C 0,0 km/h
15.03.2015 02:00 -1,8 C 81 % 1019,5 hPa 0,0 l/m 0,0 km/h O -4,6 C -1,8 C 0,0 km/h
15.03.2015 03:00 -2,5 C 82 % 1019,4 hPa 0,0 l/m 0,0 km/h O-NO -5,1 C -2,5 C 0,0 km/h
15.03.2015 04:00 -2,9 C 83 % 1019,4 hPa 0,0 l/m 0,0 km/h O -5,4 C -2,9 C 0,0 km/h
15.03.2015 05:00 -3,3 C 84 % 1019,5 hPa 0,0 l/m 0,0 km/h O-SO -5,6 C -3,3 C 0,0 km/h
15.03.2015 06:00 -2,4 C 85 % 1019,7 hPa 0,0 l/m 0,0 km/h O-NO -4,6 C -2,4 C 0,0 km/h
15.03.2015 07:00 -0,6 C 86 % 1020,3 hPa 0,0 l/m 0,0 km/h O-NO -2,6 C -0,6 C 0,0 km/h
15.03.2015 08:00 1,3 C 86 % 1020,0 hPa 0,0 l/m 0,0 km/h W -0,8 C 1,3 C 0,0 km/h
15.03.2015 09:00 7,9 C 76 % 1019,7 hPa 0,0 l/m 0,0 km/h N-NW 3,9 C 7,9 C 0,0 km/h
15.03.2015 10:00 11,4 C 63 % 1019,1 hPa 0,0 l/m 0,0 km/h N 4,6 C 11,4 C 0,0 km/h
15.03.2015 11:00 14,5 C 53 % 1018,6 hPa 0,0 l/m 0,0 km/h N-NW 5,0 C 14,5 C 0,0 km/h
15.03.2015 12:00 15,3 C 48 % 1017,9 hPa 0,0 l/m 0,0 km/h W-NW 4,4 C 15,3 C 0,0 km/h
15.03.2015 13:00 16,5 C 45 % 1017,2 hPa 0,0 l/m 14,3 km/h W-NW 4,5 C 13,2 C 7,9 km/h
15.03.2015 14:00 18,8 C 40 % 1016,6 hPa 0,0 l/m 7,8 km/h N-NO 4,9 C 18,2 C 4,3 km/h
15.03.2015 15:00 19,0 C 37 % 1016,2 hPa 0,0 l/m 7,1 km/h N-NO 4,0 C 18,7 C 4,0 km/h
15.03.2015 16:00 15,3 C 42 % 1016,1 hPa 0,0 l/m 14,9 km/h N 2,5 C 11,6 C 8,3 km/h
15.03.2015 17:00 11,9 C 50 % 1016,0 hPa 0,0 l/m 0,0 km/h N-NO 1,8 C 11,9 C 0,0 km/h
15.03.2015 18:00 7,4 C 60 % 1016,7 hPa 0,0 l/m 0,0 km/h N-NO 0,2 C 7,4 C 0,0 km/h
15.03.2015 19:00 4,1 C 67 % 1017,0 hPa 0,0 l/m 0,0 km/h O-NO -1,5 C 4,1 C 0,0 km/h
15.03.2015 20:00 2,9 C 74 % 1017,0 hPa 0,0 l/m 0,0 km/h O-NO -1,3 C 2,9 C 0,0 km/h
15.03.2015 21:00 2,3 C 78 % 1017,4 hPa 0,0 l/m 0,0 km/h O-NO -1,1 C 2,3 C 0,0 km/h
15.03.2015 22:00 0,9 C 80 % 1017,3 hPa 0,0 l/m 0,0 km/h O-NO -2,2 C 0,9 C 0,0 km/h
15.03.2015 23:00 -0,2 C 81 % 1017,1 hPa 0,0 l/m 0,0 km/h O-NO -3,1 C -0,2 C 0,0 km/h
Min-Datum _ 12.03.15 12.03.15 13.03.15 - 09.03.15 - 12.03.15 12.03.15 09.03.15
_ Min-Zeit 04:53 12:53 16:53 - 00:53 - 04:53 04:53 00:53
Minimum _ -3,9 C 31 % 1015,4 hPa - 0,0 km/h - -6,7 C -3,9 C 0,0 km/h
Max-Datum _ 09.03.15 10.03.15 11.03.15 09.03.15 15.03.15 - 11.03.15 09.03.15 15.03.15
_ Max-Zeit 13:53 03:53 23:53 00:53 16:52 - 09:53 13:53 16:52
Maximum _ 22,9 C 87 % 1026,7 hPa 0,0 l/m 14,9 km/h
N
- 9,0 C 22,9 C 8,3 km/h
N
Durchschnitt _ 7,4 C 66 % 1021,4 hPa #0,0 l/m 0,7 km/h N-NO 0,9 C 7,3 C 0,4 km/h
www.sexauwetter.de